Time;durP1;ratioP1;P1;durP2;ratioP2;P2;SDS_P1;SDS_P2;PMS_P1;PMS_P2;Temp;Humidity;BMP_temperature;BMP_pressure;BME280_temperature;BME280_humidity;BME280_pressure;Samples;Min_cycle;Max_cycle;Signal;HPM_P1;HPM_P2
2021/03/28 00:01:36;;;;;;;4.50;1.63;;;8.60;76.80;;;;;;5030998;28;20295;-40
2021/03/28 00:04:09;;;;;;;4.13;2.20;;;8.60;76.80;;;;;;5030899;28;20212;-40
2021/03/28 00:06:51;;;;;;;6.93;2.08;;;8.70;76.80;;;;;;5030955;28;20316;-40
2021/03/28 00:09:22;;;;;;;6.10;2.50;;;8.70;76.70;;;;;;5031389;28;20300;-40
2021/03/28 00:12:04;;;;;;;3.45;1.85;;;8.70;76.60;;;;;;5030973;28;20236;-41
2021/03/28 00:14:45;;;;;;;6.93;2.00;;;8.70;76.50;;;;;;5031145;28;20643;-40
2021/03/28 00:17:35;;;;;;;4.97;2.20;;;8.80;76.60;;;;;;5033194;28;20215;-41
2021/03/28 00:20:27;;;;;;;8.77;4.50;;;8.80;76.50;;;;;;5034512;28;20295;-41
2021/03/28 00:23:17;;;;;;;5.55;3.90;;;8.80;76.50;;;;;;5034492;28;20274;-40
2021/03/28 00:25:52;;;;;;;2.80;1.92;;;8.80;76.60;;;;;;5031725;28;20703;-40
2021/03/28 00:28:37;;;;;;;9.30;7.57;;;8.80;76.70;;;;;;5034500;28;20598;-40
2021/03/28 00:31:29;;;;;;;4.88;2.45;;;8.70;76.80;;;;;;5034373;28;20643;-40
2021/03/28 00:34:13;;;;;;;5.07;2.25;;;8.70;77.10;;;;;;5004562;28;20324;-41
2021/03/28 00:36:45;;;;;;;3.65;2.10;;;8.70;77.00;;;;;;5014770;28;20633;-40
2021/03/28 00:39:31;;;;;;;2.40;1.90;;;8.60;76.80;;;;;;5014636;28;20304;-39
2021/03/28 00:42:05;;;;;;;4.43;2.08;;;8.60;76.90;;;;;;5014502;28;20245;-40
2021/03/28 00:44:42;;;;;;;3.88;2.30;;;8.50;77.00;;;;;;5014638;28;20228;-39
2021/03/28 00:47:11;;;;;;;2.20;1.83;;;8.50;77.00;;;;;;5014460;28;20233;-40
2021/03/28 00:49:41;;;;;;;5.57;1.77;;;8.50;77.00;;;;;;5014328;28;20339;-39
2021/03/28 00:52:22;;;;;;;2.95;1.65;;;8.50;76.90;;;;;;5014335;28;20308;-40
2021/03/28 00:54:52;;;;;;;4.15;1.73;;;8.50;76.90;;;;;;5014162;28;20661;-40
2021/03/28 00:57:24;;;;;;;4.00;1.90;;;8.50;76.90;;;;;;5014482;28;20300;-39
2021/03/28 00:59:58;;;;;;;9.85;2.40;;;8.50;77.00;;;;;;5015080;28;20287;-40
2021/03/28 01:02:29;;;;;;;3.53;2.00;;;8.50;77.10;;;;;;5014401;28;20209;-39
2021/03/28 01:05:29;;;;;;;6.55;2.22;;;8.40;77.10;;;;;;5014116;28;20287;-40
2021/03/28 01:08:02;;;;;;;2.45;1.50;;;8.40;77.30;;;;;;5013888;28;20287;-40
2021/03/28 01:11:02;;;;;;;4.78;1.95;;;8.30;77.50;;;;;;5013990;28;20244;-40
2021/03/28 01:13:57;;;;;;;3.28;1.60;;;8.30;77.80;;;;;;5013918;28;20388;-40
2021/03/28 01:17:10;;;;;;;7.20;2.22;;;8.20;78.10;;;;;;5013770;28;20251;-40
2021/03/28 01:20:01;;;;;;;2.83;1.80;;;8.10;78.40;;;;;;5013675;28;20209;-40
2021/03/28 01:22:40;;;;;;;5.13;2.38;;;8.00;78.80;;;;;;5013795;28;20212;-40
2021/03/28 01:25:31;;;;;;;4.97;2.03;;;8.00;79.10;;;;;;5013468;28;20232;-40
2021/03/28 01:28:14;;;;;;;3.08;1.98;;;7.90;79.40;;;;;;5010809;28;20244;-39
2021/03/28 01:30:45;;;;;;;3.92;2.00;;;7.80;79.70;;;;;;5013734;28;20210;-40
2021/03/28 01:33:15;;;;;;;3.53;2.30;;;7.80;80.00;;;;;;5023740;28;20260;-39
2021/03/28 01:35:54;;;;;;;2.38;2.00;;;7.70;80.40;;;;;;5033488;28;20228;-39
2021/03/28 01:38:26;;;;;;;3.35;1.77;;;7.70;80.90;;;;;;5033014;28;20240;-40
2021/03/28 01:40:58;;;;;;;3.90;1.73;;;7.60;81.10;;;;;;5033027;28;20288;-40
2021/03/28 01:43:34;;;;;;;6.72;2.00;;;7.50;81.50;;;;;;5033077;28;20212;-39
2021/03/28 01:46:12;;;;;;;3.50;2.30;;;7.50;82.00;;;;;;5033288;28;20275;-40
2021/03/28 01:48:46;;;;;;;4.03;1.75;;;7.40;82.20;;;;;;5032960;28;20299;-40
2021/03/28 01:51:45;;;;;;;3.80;2.15;;;7.40;82.40;;;;;;5032821;28;20234;-40
2021/03/28 01:54:22;;;;;;;3.90;2.35;;;7.40;82.90;;;;;;5032956;28;20583;-39
2021/03/28 01:56:54;;;;;;;2.33;1.92;;;7.40;83.00;;;;;;5032789;28;20318;-39
2021/03/28 01:59:34;;;;;;;4.28;2.35;;;7.40;83.40;;;;;;5033327;28;20307;-40
2021/03/28 02:02:08;;;;;;;4.50;2.10;;;7.40;83.80;;;;;;5033001;28;20255;-39
2021/03/28 02:04:51;;;;;;;1.95;1.67;;;7.30;84.20;;;;;;5032647;28;20299;-40
2021/03/28 02:07:38;;;;;;;6.13;2.65;;;7.20;84.80;;;;;;5032697;28;20260;-40
2021/03/28 02:10:18;;;;;;;3.40;2.00;;;7.20;85.30;;;;;;5032721;28;20303;-40
2021/03/28 02:12:51;;;;;;;4.60;2.33;;;7.10;85.70;;;;;;5032258;28;20669;-40
2021/03/28 02:15:36;;;;;;;2.22;1.92;;;7.10;85.90;;;;;;5032481;28;20209;-39
2021/03/28 02:18:19;;;;;;;3.92;2.35;;;7.10;86.40;;;;;;5032349;28;20258;-39
2021/03/28 02:20:52;;;;;;;6.93;2.97;;;7.10;86.70;;;;;;5032368;28;20244;-39
2021/03/28 02:23:37;;;;;;;5.18;2.60;;;7.10;86.90;;;;;;5032527;28;20618;-40
2021/03/28 02:26:17;;;;;;;5.43;2.38;;;7.00;87.30;;;;;;5032152;28;20312;-40
2021/03/28 02:28:52;;;;;;;2.63;1.88;;;7.00;87.50;;;;;;5032268;28;20248;-39
2021/03/28 02:31:31;;;;;;;3.60;2.17;;;7.00;88.00;;;;;;5032398;28;20547;-39
2021/03/28 02:34:04;;;;;;;4.32;2.78;;;7.00;89.10;;;;;;5032235;28;20332;-39
2021/03/28 02:36:36;;;;;;;5.40;2.30;;;7.00;88.50;;;;;;5032254;28;20743;-40
2021/03/28 02:39:14;;;;;;;7.70;2.38;;;7.00;88.50;;;;;;5031771;28;20300;-40
2021/03/28 02:41:49;;;;;;;5.40;2.65;;;7.10;88.90;;;;;;5032307;28;20662;-40
2021/03/28 02:44:26;;;;;;;4.47;2.00;;;7.00;88.90;;;;;;5032144;28;20208;-40
2021/03/28 02:47:07;;;;;;;3.60;2.28;;;7.00;89.30;;;;;;5031910;28;20243;-40
2021/03/28 02:49:53;;;;;;;4.97;2.45;;;7.10;89.40;;;;;;5031930;28;20299;-40
2021/03/28 02:52:32;;;;;;;6.13;2.58;;;7.20;89.70;;;;;;5031971;28;20240;-40
2021/03/28 02:55:38;;;;;;;3.28;2.58;;;7.20;89.70;;;;;;5031936;28;20214;-40
2021/03/28 02:58:34;;;;;;;3.38;2.00;;;7.30;89.80;;;;;;5032183;28;20679;-40
2021/03/28 03:01:24;;;;;;;4.95;2.60;;;7.30;89.70;;;;;;5031679;28;20304;-41
2021/03/28 03:04:29;;;;;;;5.18;2.60;;;7.30;89.90;;;;;;5031746;28;20213;-40
2021/03/28 03:07:23;;;;;;;3.83;2.22;;;7.30;90.10;;;;;;5031507;28;20315;-40
2021/03/28 03:10:08;;;;;;;4.22;2.20;;;7.30;90.30;;;;;;5031591;28;20299;-40
2021/03/28 03:12:43;;;;;;;5.15;2.60;;;7.40;90.30;;;;;;5031968;28;20236;-40
2021/03/28 03:15:20;;;;;;;2.67;2.20;;;7.40;90.20;;;;;;5031816;28;20239;-40
2021/03/28 03:18:23;;;;;;;3.00;2.20;;;7.40;90.30;;;;;;5034725;28;20284;-40
2021/03/28 03:21:43;;;;;;;2.95;2.47;;;7.40;90.40;;;;;;5051577;28;20615;-40
2021/03/28 03:24:36;;;;;;;3.58;2.33;;;7.30;90.70;;;;;;5051514;28;20208;-40
2021/03/28 03:27:30;;;;;;;4.47;2.58;;;7.40;90.80;;;;;;5051613;28;20224;-40
2021/03/28 03:30:18;;;;;;;3.58;2.70;;;7.40;90.70;;;;;;5051537;28;20270;-40
2021/03/28 03:33:14;;;;;;;4.20;2.50;;;7.40;90.80;;;;;;5044821;28;20319;-40
2021/03/28 03:35:57;;;;;;;3.67;2.45;;;7.40;90.80;;;;;;5015012;28;20231;-40
2021/03/28 03:38:50;;;;;;;4.30;2.50;;;7.40;90.90;;;;;;5031638;28;20332;-40
2021/03/28 03:41:43;;;;;;;4.28;2.47;;;7.40;91.00;;;;;;5031336;28;20216;-40
2021/03/28 03:44:16;;;;;;;4.88;2.83;;;7.40;91.00;;;;;;5031422;28;20212;-40
2021/03/28 03:47:13;;;;;;;4.47;2.47;;;7.50;91.10;;;;;;5031505;28;20663;-40
2021/03/28 03:50:11;;;;;;;3.75;2.10;;;7.50;91.20;;;;;;5015345;28;20282;-40
2021/03/28 03:53:03;;;;;;;3.33;2.80;;;7.50;91.20;;;;;;5028206;28;20209;-40
2021/03/28 03:55:42;;;;;;;3.35;2.38;;;7.50;91.20;;;;;;5034417;28;20311;-40
2021/03/28 03:58:27;;;;;;;4.32;2.40;;;7.60;91.20;;;;;;5035024;28;20212;-40
2021/03/28 04:01:14;;;;;;;5.13;2.58;;;7.50;91.30;;;;;;5035220;28;20255;-40
2021/03/28 04:03:57;;;;;;;6.22;2.42;;;7.50;91.30;;;;;;5034770;28;20572;-40
2021/03/28 04:06:54;;;;;;;4.47;2.50;;;7.50;91.40;;;;;;5034575;28;20546;-40
2021/03/28 04:09:37;;;;;;;5.30;2.30;;;7.50;91.60;;;;;;5034770;28;20303;-40
2021/03/28 04:12:24;;;;;;;7.05;2.40;;;7.50;91.60;;;;;;5035087;28;20223;-40
2021/03/28 04:15:05;;;;;;;3.05;2.72;;;7.50;91.60;;;;;;5034594;28;20274;-40
2021/03/28 04:17:45;;;;;;;4.72;2.45;;;7.60;91.70;;;;;;5034950;28;20227;-40
2021/03/28 04:20:19;;;;;;;4.00;2.10;;;7.60;91.70;;;;;;5034641;28;20675;-40
2021/03/28 04:23:30;;;;;;;3.25;2.42;;;7.60;91.70;;;;;;5034840;28;20310;-40
2021/03/28 04:26:08;;;;;;;4.57;2.53;;;7.70;91.80;;;;;;5034625;28;20264;-40
2021/03/28 04:28:52;;;;;;;3.67;2.97;;;7.60;91.90;;;;;;5034387;28;20581;-40
2021/03/28 04:31:55;;;;;;;4.78;2.75;;;7.60;92.00;;;;;;5034423;28;20248;-40
2021/03/28 04:34:26;;;;;;;4.75;2.42;;;7.50;92.10;;;;;;5034315;28;20209;-40
2021/03/28 04:37:10;;;;;;;2.65;2.17;;;7.50;92.10;;;;;;5034601;28;20637;-39
2021/03/28 04:40:16;;;;;;;4.32;2.05;;;7.50;92.30;;;;;;5034259;28;20752;-39
2021/03/28 04:43:49;;;;;;;3.95;2.60;;;7.50;92.40;;;;;;5001160;28;20562;-42
2021/03/28 04:46:50;;;;;;;4.68;2.58;;;7.40;92.50;;;;;;5034473;28;20324;-40
2021/03/28 04:49:34;;;;;;;5.13;2.63;;;7.30;92.70;;;;;;5000891;28;20465;-40
2021/03/28 04:52:50;;;;;;;3.75;2.58;;;7.20;92.80;;;;;;5034059;28;20205;-40
2021/03/28 04:55:49;;;;;;;6.32;3.10;;;7.20;92.90;;;;;;5034234;28;20452;-40
2021/03/28 04:58:46;;;;;;;4.55;3.05;;;7.20;93.10;;;;;;5033936;28;20204;-40
2021/03/28 05:01:41;;;;;;;4.32;2.53;;;7.20;93.20;;;;;;5033889;28;20244;-40
2021/03/28 05:04:35;;;;;;;6.97;2.42;;;7.20;93.40;;;;;;4998786;28;20679;-40
2021/03/28 05:07:51;;;;;;;4.63;2.38;;;7.20;93.10;;;;;;5033695;28;20324;-40
2021/03/28 05:10:33;;;;;;;3.47;1.98;;;7.10;93.00;;;;;;5033698;28;20612;-40
2021/03/28 05:13:44;;;;;;;3.92;2.40;;;7.20;93.00;;;;;;5033764;28;20209;-40
2021/03/28 05:16:53;;;;;;;5.60;2.47;;;7.20;92.90;;;;;;5033669;28;20300;-40
2021/03/28 05:19:50;;;;;;;2.83;2.00;;;7.20;92.90;;;;;;5033594;28;20582;-40
2021/03/28 05:22:59;;;;;;;6.63;3.13;;;7.30;92.90;;;;;;5033694;28;20213;-40
2021/03/28 05:25:59;;;;;;;4.43;2.53;;;7.30;92.90;;;;;;5033407;28;20251;-40
2021/03/28 05:28:48;;;;;;;4.25;3.15;;;7.30;92.80;;;;;;5033563;28;20578;-39
2021/03/28 05:31:45;;;;;;;4.75;3.28;;;7.40;92.70;;;;;;5033194;28;20296;-40
2021/03/28 05:34:43;;;;;;;4.78;2.58;;;7.40;92.80;;;;;;4972385;28;20319;-39
2021/03/28 05:37:29;;;;;;;6.10;2.20;;;7.40;92.70;;;;;;5033332;28;20240;-39
2021/03/28 05:40:22;;;;;;;2.38;2.13;;;7.40;92.70;;;;;;5033086;28;20295;-40
2021/03/28 05:43:19;;;;;;;4.03;2.70;;;7.50;92.70;;;;;;5033112;28;20308;-40
2021/03/28 05:46:05;;;;;;;4.75;2.42;;;7.50;92.70;;;;;;5002720;28;20209;-40
2021/03/28 05:49:03;;;;;;;8.85;4.47;;;7.50;92.70;;;;;;5032699;28;20622;-40
2021/03/28 05:52:18;;;;;;;4.53;3.03;;;7.60;93.10;;;;;;5032879;28;20267;-40
2021/03/28 05:55:33;;;;;;;3.95;2.72;;;7.70;93.10;;;;;;5032471;28;20251;-40
2021/03/28 05:58:19;;;;;;;6.50;3.25;;;7.70;93.10;;;;;;5032746;28;20611;-40
2021/03/28 06:01:28;;;;;;;5.88;3.17;;;7.80;93.00;;;;;;5032522;28;20220;-40
2021/03/28 06:04:32;;;;;;;6.80;3.10;;;7.80;93.10;;;;;;5032849;28;20217;-40
2021/03/28 06:08:09;;;;;;;5.90;3.55;;;7.90;93.10;;;;;;5032547;28;20267;-40
2021/03/28 06:11:14;;;;;;;5.20;3.17;;;7.90;93.10;;;;;;5032455;28;20254;-40
2021/03/28 06:14:28;;;;;;;5.03;3.40;;;8.10;93.00;;;;;;5032157;28;20208;-41
2021/03/28 06:17:14;;;;;;;5.13;3.45;;;8.20;93.00;;;;;;5032338;28;20644;-40
2021/03/28 06:20:21;;;;;;;6.63;3.80;;;8.30;92.90;;;;;;5032418;28;20295;-40
2021/03/28 06:23:37;;;;;;;7.03;4.13;;;8.40;92.90;;;;;;5032392;28;20292;-41
2021/03/28 06:26:53;;;;;;;6.38;5.63;;;8.60;92.70;;;;;;5019255;28;20695;-40
2021/03/28 06:29:55;;;;;;;9.05;6.88;;;8.80;92.40;;;;;;4970992;28;20210;-41
2021/03/28 06:33:09;;;;;;;7.18;4.78;;;8.90;92.10;;;;;;4998645;28;20328;-41
2021/03/28 06:36:08;;;;;;;6.45;3.22;;;9.10;92.00;;;;;;5032031;28;20297;-40
2021/03/28 06:39:11;;;;;;;5.05;3.20;;;9.10;91.60;;;;;;5031911;28;20231;-40
2021/03/28 06:42:00;;;;;;;4.43;2.63;;;9.00;91.40;;;;;;5032028;28;20295;-40
2021/03/28 06:44:50;;;;;;;7.35;3.33;;;8.90;91.50;;;;;;5031910;28;20212;-40
2021/03/28 06:48:03;;;;;;;5.28;2.70;;;8.80;91.60;;;;;;5031930;28;20268;-41
2021/03/28 06:50:53;;;;;;;2.83;2.45;;;8.70;91.50;;;;;;5031903;28;20266;-40
2021/03/28 06:54:14;;;;;;;17.75;11.32;;;8.80;91.50;;;;;;5032025;28;20345;-40
2021/03/28 06:57:15;;;;;;;5.13;2.25;;;8.90;91.30;;;;;;5031819;28;20235;-40
2021/03/28 07:04:04;;;;;;;4.82;2.33;;;9.00;90.90;;;;;;5031866;28;20215;-41
2021/03/28 07:06:40;;;;;;;3.47;2.15;;;9.10;90.70;;;;;;4967931;28;20312;-41
2021/03/28 07:09:25;;;;;;;7.90;3.15;;;9.10;90.60;;;;;;5031807;28;20637;-40
2021/03/28 07:12:01;;;;;;;4.93;2.72;;;9.20;90.40;;;;;;5031625;28;20681;-40
2021/03/28 07:15:07;;;;;;;3.53;2.25;;;9.30;90.30;;;;;;5031807;28;20207;-40
2021/03/28 07:18:23;;;;;;;5.07;2.72;;;9.40;90.00;;;;;;5018314;28;20287;-41
2021/03/28 07:21:02;;;;;;;3.83;2.25;;;9.50;89.40;;;;;;4951541;29;20399;-40
2021/03/28 07:23:52;;;;;;;2.50;1.80;;;9.50;89.50;;;;;;4951452;29;20238;-41
2021/03/28 07:26:37;;;;;;;6.10;2.65;;;9.50;89.40;;;;;;5017935;28;20219;-41
2021/03/28 07:29:47;;;;;;;4.97;2.85;;;9.50;89.20;;;;;;5035905;28;20213;-48
2021/03/28 07:32:46;;;;;;;5.72;2.60;;;9.50;88.70;;;;;;5035518;28;20246;-42
2021/03/28 07:35:47;;;;;;;4.88;2.22;;;9.50;88.90;;;;;;5018890;28;20292;-41
2021/03/28 07:38:56;;;;;;;4.97;2.38;;;9.60;88.80;;;;;;5035401;28;20286;-42
2021/03/28 07:41:56;;;;;;;3.78;2.45;;;9.80;88.20;;;;;;5035554;28;20529;-41
2021/03/28 07:45:00;;;;;;;6.82;2.50;;;10.00;88.50;;;;;;4961905;28;20215;-41
2021/03/28 07:48:05;;;;;;;6.82;2.47;;;10.10;87.30;;;;;;5035209;28;20324;-42
2021/03/28 07:51:02;;;;;;;4.15;2.13;;;10.10;86.60;;;;;;5035388;28;20734;-40
2021/03/28 07:54:09;;;;;;;4.00;2.17;;;10.20;87.10;;;;;;5035128;28;20209;-40
2021/03/28 07:57:01;;;;;;;4.20;2.83;;;10.30;86.40;;;;;;5035275;28;20213;-40
2021/03/28 07:59:44;;;;;;;4.72;2.17;;;10.30;86.30;;;;;;5035363;28;20209;-40
2021/03/28 08:02:29;;;;;;;7.13;2.97;;;10.40;86.20;;;;;;5036661;28;20209;-41
2021/03/28 08:05:21;;;;;;;3.83;2.10;;;10.60;85.50;;;;;;5035709;28;20664;-40
2021/03/28 08:07:54;;;;;;;5.75;2.70;;;10.60;85.20;;;;;;5034650;28;20293;-41
2021/03/28 08:10:47;;;;;;;4.03;2.55;;;10.80;85.20;;;;;;5034752;28;20262;-41
2021/03/28 08:13:56;;;;;;;4.47;2.88;;;11.00;83.90;;;;;;5031648;28;20208;-41
2021/03/28 08:17:00;;;;;;;7.43;2.17;;;11.30;82.60;;;;;;5034788;28;20300;-41
2021/03/28 08:19:55;;;;;;;4.60;2.33;;;11.40;81.50;;;;;;5034575;28;20671;-40
2021/03/28 08:22:33;;;;;;;6.47;2.67;;;11.40;81.50;;;;;;5019229;28;20363;-40
2021/03/28 08:25:43;;;;;;;4.90;2.35;;;11.50;81.30;;;;;;5034837;28;20244;-44
2021/03/28 08:28:31;;;;;;;7.35;3.38;;;11.50;81.00;;;;;;5034266;28;20284;-45
2021/03/28 08:31:12;;;;;;;5.65;3.28;;;11.70;80.40;;;;;;5033875;28;20650;-43
2021/03/28 08:34:22;;;;;;;6.63;3.05;;;11.90;79.70;;;;;;5034296;28;20675;-44
2021/03/28 08:37:20;;;;;;;4.78;2.45;;;12.00;78.10;;;;;;4971007;28;20204;-45
2021/03/28 08:40:15;;;;;;;4.03;2.53;;;12.00;78.50;;;;;;5033856;28;20213;-44
2021/03/28 08:43:19;;;;;;;5.57;2.60;;;12.00;77.90;;;;;;5034110;28;20209;-44
2021/03/28 08:46:25;;;;;;;6.03;2.30;;;12.00;75.70;;;;;;5034087;28;20219;-44
2021/03/28 08:48:57;;;;;;;4.50;2.85;;;11.90;75.20;;;;;;5034265;28;20250;-41
2021/03/28 08:52:03;;;;;;;4.07;2.35;;;11.80;76.20;;;;;;5034127;28;20208;-42
2021/03/28 08:54:39;;;;;;;2.78;2.10;;;11.80;75.90;;;;;;5034103;28;20215;-44
2021/03/28 08:57:28;;;;;;;5.35;2.85;;;11.80;75.60;;;;;;5034260;28;20659;-42
2021/03/28 09:00:23;;;;;;;4.70;2.38;;;11.80;76.50;;;;;;5033902;28;20307;-44
2021/03/28 09:02:59;;;;;;;4.63;2.42;;;11.80;75.60;;;;;;5034059;28;20267;-42
2021/03/28 09:05:41;;;;;;;3.63;2.38;;;11.90;74.90;;;;;;5033912;28;20290;-44
2021/03/28 09:08:20;;;;;;;5.43;2.70;;;11.90;74.40;;;;;;5033706;28;20360;-42
2021/03/28 09:11:24;;;;;;;5.38;2.17;;;11.80;75.20;;;;;;5033842;28;20228;-44
2021/03/28 09:14:00;;;;;;;5.40;2.55;;;11.80;75.10;;;;;;5033430;28;20209;-42
2021/03/28 09:16:41;;;;;;;4.03;2.40;;;12.00;74.70;;;;;;5033694;28;20252;-43
2021/03/28 09:19:18;;;;;;;7.82;3.42;;;12.10;73.50;;;;;;5033866;28;20292;-42
2021/03/28 09:21:52;;;;;;;4.78;1.92;;;12.20;73.10;;;;;;5033683;28;20248;-41
2021/03/28 09:24:41;;;;;;;3.63;2.20;;;12.40;72.90;;;;;;5033574;28;20299;-42
2021/03/28 09:27:39;;;;;;;6.45;2.42;;;12.60;71.20;;;;;;5033299;28;20229;-46
2021/03/28 09:30:25;;;;;;;4.20;3.25;;;12.80;70.10;;;;;;5033337;28;20583;-43
2021/03/28 09:33:19;;;;;;;4.43;2.47;;;13.20;68.50;;;;;;5033197;28;20647;-41
2021/03/28 09:36:11;;;;;;;2.88;1.77;;;13.60;66.50;;;;;;4996688;28;20258;-42
2021/03/28 09:39:09;;;;;;;3.35;1.85;;;13.80;65.50;;;;;;5033275;28;20664;-41
2021/03/28 09:42:16;;;;;;;1.63;1.45;;;13.80;63.20;;;;;;5033286;28;20256;-45
2021/03/28 09:45:11;;;;;;;4.07;2.20;;;13.60;61.90;;;;;;5065125;23;20248;-42
2021/03/28 09:47:43;;;;;;;3.65;1.80;;;13.20;63.90;;;;;;5053118;28;20274;-43
2021/03/28 09:50:23;;;;;;;4.35;1.95;;;13.00;64.60;;;;;;5051739;28;20259;-42
2021/03/28 09:53:14;;;;;;;3.60;1.67;;;12.80;64.30;;;;;;5053110;28;20339;-45
2021/03/28 09:56:14;;;;;;;3.58;2.03;;;12.70;64.10;;;;;;5053118;28;20222;-39
2021/03/28 09:59:21;;;;;;;3.40;1.85;;;12.50;64.20;;;;;;5053021;28;20295;-39
2021/03/28 10:02:26;;;;;;;4.28;2.47;;;12.40;64.20;;;;;;5023121;28;20564;-43
2021/03/28 10:05:07;;;;;;;4.72;1.83;;;12.50;65.20;;;;;;5052826;28;20295;-40
2021/03/28 10:07:43;;;;;;;4.70;2.42;;;12.50;64.30;;;;;;5052857;28;20246;-41
2021/03/28 10:10:31;;;;;;;2.50;1.52;;;12.50;64.80;;;;;;5110054;27;20522;-41
2021/03/28 10:13:09;;;;;;;4.50;1.73;;;12.50;64.80;;;;;;5109756;28;20241;-40
2021/03/28 10:15:50;;;;;;;6.00;2.30;;;12.70;64.40;;;;;;5110043;28;20297;-41
2021/03/28 10:18:24;;;;;;;4.93;2.22;;;12.70;64.10;;;;;;5109872;28;20737;-41
2021/03/28 10:21:09;;;;;;;4.70;2.20;;;12.80;64.60;;;;;;5109702;28;20308;-41
2021/03/28 10:23:48;;;;;;;4.72;1.77;;;12.90;64.40;;;;;;5109857;28;20646;-41
2021/03/28 10:26:37;;;;;;;2.78;1.98;;;13.00;64.60;;;;;;5110143;28;20205;-41
2021/03/28 10:29:27;;;;;;;4.00;2.00;;;13.20;64.30;;;;;;5109439;28;20658;-41
2021/03/28 10:32:01;;;;;;;7.43;2.50;;;13.20;64.30;;;;;;5109366;28;20202;-41
2021/03/28 10:34:57;;;;;;;4.43;2.65;;;13.20;64.50;;;;;;5109454;28;20219;-45
2021/03/28 10:37:38;;;;;;;5.90;2.60;;;13.20;64.90;;;;;;5109642;28;20202;-44
2021/03/28 10:40:20;;;;;;;2.85;2.40;;;13.20;65.00;;;;;;5109199;28;20202;-41
2021/03/28 10:42:56;;;;;;;7.47;2.80;;;13.20;64.80;;;;;;5109482;28;20254;-42
2021/03/28 10:45:36;;;;;;;3.13;2.45;;;13.20;64.80;;;;;;5109349;28;20202;-42
2021/03/28 10:49:03;;;;;;;7.32;3.95;;;13.30;64.70;;;;;;5109026;28;20214;-41
2021/03/28 10:51:59;;;;;;;4.38;1.92;;;13.60;64.30;;;;;;5065704;28;20315;-40
2021/03/28 10:54:54;;;;;;;4.43;2.42;;;13.80;63.80;;;;;;5065784;28;20214;-42
2021/03/28 10:58:12;;;;;;;8.07;3.65;;;13.90;63.70;;;;;;5103321;28;20222;-41
2021/03/28 11:01:33;;;;;;;8.68;6.45;;;13.90;63.50;;;;;;5108752;28;20213;-42
2021/03/28 11:04:41;;;;;;;4.20;2.20;;;14.00;63.80;;;;;;5108769;28;20309;-44
2021/03/28 11:07:32;;;;;;;6.60;2.28;;;14.00;63.30;;;;;;5108495;28;20206;-40
2021/03/28 11:10:16;;;;;;;5.18;1.80;;;13.90;62.30;;;;;;5101236;28;20234;-41
2021/03/28 11:13:06;;;;;;;4.47;2.30;;;13.80;62.90;;;;;;5108456;28;20691;-41
2021/03/28 11:15:47;;;;;;;3.35;1.65;;;13.80;62.00;;;;;;5102893;28;20206;-41
2021/03/28 11:18:54;;;;;;;2.50;1.90;;;13.80;62.70;;;;;;5108416;28;20218;-42
2021/03/28 11:21:28;;;;;;;5.00;2.13;;;14.00;62.00;;;;;;5096435;28;20206;-42
2021/03/28 11:24:10;;;;;;;6.80;2.22;;;14.00;62.00;;;;;;5094636;28;20256;-41
2021/03/28 11:27:11;;;;;;;2.20;1.77;;;14.10;61.90;;;;;;5094604;28;20236;-42
2021/03/28 11:30:07;;;;;;;3.90;2.00;;;14.10;61.30;;;;;;5094294;28;20226;-42
2021/03/28 11:32:58;;;;;;;2.83;1.92;;;14.00;61.30;;;;;;5094692;28;20630;-40
2021/03/28 11:35:32;;;;;;;3.10;2.10;;;14.10;61.60;;;;;;5094671;28;20206;-42
2021/03/28 11:38:41;;;;;;;3.50;1.98;;;14.20;61.20;;;;;;5094336;28;20658;-42
2021/03/28 11:41:34;;;;;;;2.67;1.67;;;14.30;61.10;;;;;;5088562;28;20293;-41
2021/03/28 11:44:20;;;;;;;4.63;2.13;;;14.30;61.40;;;;;;5094013;28;20250;-41
2021/03/28 11:47:24;;;;;;;2.58;1.75;;;14.40;61.50;;;;;;5094109;28;20238;-42
2021/03/28 11:50:31;;;;;;;4.45;2.20;;;14.60;60.70;;;;;;5072282;28;20230;-40
2021/03/28 11:53:04;;;;;;;2.85;1.75;;;14.60;60.20;;;;;;5093891;28;20234;-40
2021/03/28 11:55:45;;;;;;;4.28;2.50;;;14.60;60.60;;;;;;5093698;28;20748;-40
2021/03/28 12:02:02;;;;;;;3.88;1.80;;;14.40;60.60;;;;;;5090956;28;20198;-41
2021/03/28 12:04:33;;;;;;;4.68;1.63;;;14.40;60.60;;;;;;5091344;28;20206;-42
2021/03/28 12:07:25;;;;;;;4.60;2.05;;;14.40;61.20;;;;;;5091144;28;20245;-41
2021/03/28 12:10:28;;;;;;;4.45;2.38;;;14.50;60.80;;;;;;5090747;28;20353;-42
2021/03/28 12:13:37;;;;;;;4.25;1.73;;;14.60;60.50;;;;;;5090633;28;20238;-42
2021/03/28 12:16:07;;;;;;;5.72;2.00;;;14.70;60.20;;;;;;5069835;28;20213;-42
2021/03/28 12:18:56;;;;;;;4.55;2.28;;;14.70;60.40;;;;;;5090928;28;20679;-43
2021/03/28 12:22:00;;;;;;;4.28;2.10;;;14.60;60.10;;;;;;5090917;28;20641;-44
2021/03/28 12:24:31;;;;;;;4.47;2.47;;;14.60;60.20;;;;;;5091125;28;20244;-46
2021/03/28 12:27:04;;;;;;;24.67;17.40;;;14.60;60.30;;;;;;5091112;28;20202;-44
2021/03/28 12:29:43;;;;;;;8.52;6.30;;;14.50;60.50;;;;;;5090900;28;20258;-43
2021/03/28 12:32:50;;;;;;;8.25;3.55;;;14.50;60.40;;;;;;5091003;28;20217;-43
2021/03/28 12:39:10;;;;;;;15.20;12.07;;;14.40;60.60;;;;;;5092782;28;20711;-44
2021/03/28 12:42:17;;;;;;;5.70;2.70;;;14.40;60.90;;;;;;5093710;28;20213;-42
2021/03/28 12:44:46;;;;;;;3.63;2.00;;;14.60;60.50;;;;;;5092919;28;20613;-41
2021/03/28 12:47:23;;;;;;;3.95;1.90;;;14.70;60.80;;;;;;5093096;28;20250;-41
2021/03/28 12:49:59;;;;;;;5.05;2.08;;;14.70;60.60;;;;;;5091491;28;20590;-42
2021/03/28 12:52:40;;;;;;;5.43;2.45;;;14.70;60.50;;;;;;5093071;28;20206;-42
2021/03/28 12:55:39;;;;;;;4.70;2.22;;;14.70;60.80;;;;;;5093038;28;20206;-43
2021/03/28 12:58:24;;;;;;;4.97;2.60;;;14.80;60.30;;;;;;5092757;28;20639;-40
2021/03/28 13:01:00;;;;;;;3.83;1.95;;;14.80;60.40;;;;;;5092631;28;20260;-41
2021/03/28 13:03:37;;;;;;;3.78;2.42;;;14.90;60.60;;;;;;5092414;28;20207;-42
2021/03/28 13:06:25;;;;;;;4.75;2.50;;;15.00;60.10;;;;;;5092237;28;20267;-41
2021/03/28 13:08:55;;;;;;;10.07;5.47;;;15.10;59.90;;;;;;5092718;28;20284;-41
2021/03/28 13:11:40;;;;;;;2.78;2.10;;;15.10;60.20;;;;;;5092250;28;20721;-41
2021/03/28 13:14:24;;;;;;;9.30;6.05;;;15.10;60.10;;;;;;5092754;28;20261;-41
2021/03/28 13:16:56;;;;;;;5.63;2.00;;;15.10;59.90;;;;;;5092771;28;20294;-42
2021/03/28 13:19:26;;;;;;;5.05;3.58;;;15.20;59.70;;;;;;5092763;28;20268;-41
2021/03/28 13:21:59;;;;;;;83.95;71.57;;;15.30;59.70;;;;;;5092671;28;20224;-40
2021/03/28 13:24:27;;;;;;;5.90;3.75;;;15.40;59.40;;;;;;5092473;28;20277;-42
2021/03/28 13:27:04;;;;;;;7.72;2.33;;;15.50;59.10;;;;;;5092032;28;20207;-42
2021/03/28 13:29:37;;;;;;;7.32;3.72;;;15.50;59.00;;;;;;5092004;28;20262;-41
2021/03/28 13:32:14;;;;;;;6.22;3.13;;;15.50;59.20;;;;;;5091684;28;20251;-41
2021/03/28 13:34:55;;;;;;;5.80;3.58;;;15.50;59.20;;;;;;5092081;28;20242;-41
2021/03/28 13:37:52;;;;;;;3.50;2.17;;;15.70;58.80;;;;;;5092103;28;20304;-42
2021/03/28 13:40:25;;;;;;;4.05;2.15;;;16.00;58.20;;;;;;5091128;28;20206;-40
2021/03/28 13:42:56;;;;;;;4.40;2.40;;;16.00;58.00;;;;;;5091892;28;20293;-41
2021/03/28 13:45:32;;;;;;;3.05;2.60;;;15.90;57.90;;;;;;5092072;28;20214;-41
2021/03/28 13:48:20;;;;;;;4.43;2.20;;;15.80;58.00;;;;;;5091986;28;20268;-41
2021/03/28 13:50:53;;;;;;;4.70;2.22;;;15.60;58.10;;;;;;5091938;28;20307;-41
2021/03/28 13:53:37;;;;;;;4.15;2.28;;;15.50;58.50;;;;;;5091776;28;20271;-43
2021/03/28 13:56:19;;;;;;;3.78;2.47;;;15.40;58.70;;;;;;5091713;28;20290;-41
2021/03/28 13:59:04;;;;;;;5.30;2.13;;;15.40;58.60;;;;;;5091879;28;20246;-45
2021/03/28 14:01:44;;;;;;;4.07;2.03;;;15.50;58.60;;;;;;5091698;28;20288;-40
2021/03/28 14:04:21;;;;;;;4.95;2.90;;;15.60;58.00;;;;;;5090550;28;20401;-41
2021/03/28 14:07:00;;;;;;;4.03;2.78;;;15.70;57.80;;;;;;5091991;28;20212;-41
2021/03/28 14:09:32;;;;;;;4.63;2.10;;;15.80;57.70;;;;;;5091903;28;20410;-39
2021/03/28 14:12:02;;;;;;;2.95;1.77;;;15.90;57.40;;;;;;5091865;28;20206;-40
2021/03/28 14:14:32;;;;;;;4.00;2.00;;;15.90;57.20;;;;;;5091517;28;20211;-41
2021/03/28 14:17:11;;;;;;;4.25;1.75;;;15.90;57.30;;;;;;5091621;28;20206;-43
2021/03/28 14:19:39;;;;;;;5.18;2.53;;;16.00;57.20;;;;;;5091864;28;20202;-41
2021/03/28 14:22:25;;;;;;;3.40;1.77;;;16.00;57.10;;;;;;5091639;28;20216;-41
2021/03/28 14:24:55;;;;;;;4.60;2.08;;;16.00;56.80;;;;;;5091573;28;20206;-41
2021/03/28 14:27:27;;;;;;;5.13;2.60;;;16.00;56.90;;;;;;5091806;28;20310;-42
2021/03/28 14:30:00;;;;;;;6.03;2.30;;;16.00;56.80;;;;;;5091535;28;20303;-42
2021/03/28 14:32:35;;;;;;;5.20;2.83;;;16.10;56.50;;;;;;5091729;28;20305;-42
2021/03/28 14:35:30;;;;;;;4.75;2.03;;;16.20;56.30;;;;;;5091452;28;20347;-41
2021/03/28 14:38:34;;;;;;;3.70;2.50;;;16.20;55.90;;;;;;5091466;28;20206;-41
2021/03/28 14:41:30;;;;;;;4.57;2.35;;;16.30;55.60;;;;;;5091578;28;20309;-44
2021/03/28 14:44:32;;;;;;;3.58;2.70;;;16.30;55.00;;;;;;5091404;28;20297;-42
2021/03/28 14:47:08;;;;;;;4.10;2.00;;;16.20;55.40;;;;;;5091674;28;20290;-40
2021/03/28 14:49:44;;;;;;;4.13;2.40;;;16.20;55.20;;;;;;5091429;28;20222;-42
2021/03/28 14:52:35;;;;;;;4.43;2.40;;;16.20;55.20;;;;;;5091185;28;20215;-42
2021/03/28 14:55:17;;;;;;;3.83;2.08;;;16.10;54.90;;;;;;5091996;28;20230;-41